Paul Andrew — WCP2545 — position and weather

sailwx.info

Track history (hours):
 
Tides and Currents Weather Stations Pressure Air Temp Water Temp Dewpoint Dewpoint Depression Visibility Wind Speed Wind Dir Waves Ship Positions

Paul Andrew

Owner: Donjon Marine Co., Inc., HILLSIDE, NJ. More information available from US FCC via Universal Licensing System and Coast Guard Vessel Documentation Center.

Last reported at 2018-Jun-20 10:51 UTC. Time now 2018-Jun-20 11:24 UTC.
Position N 40°41' W 074°09'.

Length 20 m; draft 2.5 m.

Type: Tug. MMSI: 366979030.

Date/timePositionNaut miles runAvg speedWind from/ knotsBaromVisibWave heightAir tempDewpointWater temp
2018-Jun-20 10:51N 40°41' W 074°09'1 2.5
2018-Jun-20 10:26N 40°40' W 074°08'1 2.7
2018-Jun-20 10:00N 40°39' W 074°09'2 4.4
2018-Jun-20 09:30N 40°39' W 074°06'2 4.7
2018-Jun-20 09:00N 40°41' W 074°04'1 2.1
2018-Jun-20 08:30N 40°41' W 074°05'0 0.0
2018-Jun-20 08:00N 40°41' W 074°05'0 0.0
2018-Jun-20 07:30N 40°41' W 074°05'0 0.0
2018-Jun-20 07:00N 40°41' W 074°05'0 0.0
2018-Jun-20 06:30N 40°41' W 074°05'0 0.0
2018-Jun-20 06:00N 40°41' W 074°05'0 0.0
2018-Jun-20 05:30N 40°41' W 074°05'0 0.0
2018-Jun-20 05:00N 40°41' W 074°05'0 0.0
2018-Jun-20 04:30N 40°41' W 074°05'0 0.0
2018-Jun-20 04:00N 40°41' W 074°05'0 0.0
2018-Jun-20 03:30N 40°41' W 074°05'0 0.0
2018-Jun-20 02:57N 40°41' W 074°05'0 0.0
2018-Jun-20 02:30N 40°41' W 074°05'0 0.0
2018-Jun-20 01:00N 40°41' W 074°05'0 0.0
2018-Jun-20 00:18N 40°41' W 074°05'0 0.0
2018-Jun-20 00:00N 40°41' W 074°05'0 0.0
2018-Jun-19 21:15N 40°41' W 074°05'0 0.0
2018-Jun-19 21:00N 40°41' W 074°05'0 0.0
2018-Jun-19 20:30N 40°41' W 074°05'0 0.0
2018-Jun-19 20:00N 40°41' W 074°05'0 0.0
2018-Jun-19 19:30N 40°41' W 074°05'0 0.0
2018-Jun-19 19:00N 40°41' W 074°05'0 0.0
2018-Jun-19 18:30N 40°41' W 074°05'0 0.0
2018-Jun-19 18:00N 40°41' W 074°05'0 0.0
2018-Jun-19 17:30N 40°41' W 074°05'0 0.0
2018-Jun-19 17:00N 40°41' W 074°05'0 0.0
2018-Jun-19 16:30N 40°41' W 074°05'0 0.0
2018-Jun-19 16:00N 40°41' W 074°05'0 0.0
2018-Jun-19 15:30N 40°41' W 074°05'0 0.0
2018-Jun-19 15:00N 40°41' W 074°05'0 0.0
2018-Jun-19 14:30N 40°41' W 074°05'0 0.0
2018-Jun-19 13:54N 40°41' W 074°05'0 0.0
2018-Jun-19 13:24N 40°41' W 074°05'0 0.0
2018-Jun-19 13:00N 40°41' W 074°05'0 0.2
2018-Jun-19 12:28N 40°41' W 074°05'0 1.0
2018-Jun-19 12:00N 40°41' W 074°04'2 4.4
2018-Jun-19 11:30N 40°41' W 074°01'4 6.6
2018-Jun-19 10:50N 40°45' W 073°58'1 0.3
2018-Jun-19 06:03N 40°46' W 073°57'0 7.2
2018-Jun-19 06:00N 40°46' W 073°57'2 4.9
2018-Jun-19 05:30N 40°43' W 073°58'3 6.5
2018-Jun-19 05:00N 40°41' W 074°01'2 4.2
2018-Jun-19 04:30N 40°41' W 074°04'0 0.8
2018-Jun-19 03:59N 40°41' W 074°05'0 0.2
2018-Jun-19 03:28N 40°41' W 074°05'0 0.0
2018-Jun-19 02:58N 40°41' W 074°05'0 0.0
2018-Jun-19 02:19N 40°41' W 074°05'0 0.0
2018-Jun-19 01:58N 40°41' W 074°05'0 0.0
2018-Jun-19 01:25N 40°41' W 074°05'0 0.0
2018-Jun-19 00:55N 40°41' W 074°05'0 0.1
2018-Jun-19 00:28N 40°41' W 074°05'0 0.1
2018-Jun-18 23:58N 40°41' W 074°05'0 0.2
2018-Jun-18 23:28N 40°41' W 074°05'3 6.1
2018-Jun-18 22:59N 40°39' W 074°07'2 4.9
2018-Jun-18 22:29N 40°41' W 074°08'1 0.0
2018-Jun-17 10:35N 40°42' W 074°08'1 0.5
2018-Jun-17 09:02N 40°41' W 074°09'0 1.4
2018-Jun-17 08:59N 40°41' W 074°09'0 0.2
2018-Jun-17 08:27N 40°41' W 074°09'2 4.1
2018-Jun-17 07:57N 40°39' W 074°09'2 3.7
2018-Jun-17 07:30N 40°39' W 074°07'2 3.6
2018-Jun-17 07:00N 40°39' W 074°05'3 5.8
2018-Jun-17 06:30N 40°41' W 074°01'4 7.0
2018-Jun-17 06:00N 40°44' W 073°58'2 0.1
2018-Jun-16 11:51N 40°46' W 073°57'2 7.0
2018-Jun-16 11:30N 40°44' W 073°58'3 6.1
2018-Jun-16 11:01N 40°41' W 074°01'2 4.8
2018-Jun-16 10:31N 40°41' W 074°04'1 1.4
2018-Jun-16 10:00N 40°41' W 074°05'0 0.3
2018-Jun-16 09:28N 40°41' W 074°05'0 0.0
2018-Jun-16 08:58N 40°41' W 074°05'0 0.0
2018-Jun-16 08:28N 40°41' W 074°05'0 0.0
2018-Jun-16 07:55N 40°41' W 074°05'0 0.0
2018-Jun-16 07:28N 40°41' W 074°05'0 0.0
2018-Jun-16 06:46N 40°41' W 074°05'0 0.0
2018-Jun-16 06:28N 40°41' W 074°05'0 0.0
2018-Jun-16 05:55N 40°41' W 074°05'0 0.0
2018-Jun-16 05:28N 40°41' W 074°05'0 0.0
2018-Jun-16 04:46N 40°41' W 074°05'0 0.0
2018-Jun-16 04:25N 40°41' W 074°05'0 0.0
2018-Jun-16 03:58N 40°41' W 074°05'0 0.0
2018-Jun-16 03:28N 40°41' W 074°05'0 0.0
2018-Jun-16 03:00N 40°41' W 074°05'2 3.2
2018-Jun-16 02:31N 40°40' W 074°03'2 4.7
2018-Jun-16 01:59N 40°40' W 073°60'0 0.0
2018-Jun-16 01:30N 40°40' W 073°60'2 4.3
2018-Jun-16 01:00N 40°39' W 074°02'3 6.2
2018-Jun-16 00:30N 40°39' W 074°06'2 4.4
2018-Jun-16 00:00N 40°39' W 074°09'2 1.1
2018-Jun-15 22:13N 40°41' W 074°09'0 0.0
2018-Jun-15 21:31N 40°41' W 074°09'0 0.4
2018-Jun-15 21:21N 40°41' W 074°09'2 6.1
2018-Jun-15 20:59N 40°39' W 074°08'3 6.4
2018-Jun-15 20:31N 40°40' W 074°04'1 1.0
2018-Jun-15 20:00N 40°40' W 074°05'0 0.0
2018-Jun-15 19:30N 40°40' W 074°05'0 0.0
2018-Jun-15 19:00N 40°40' W 074°05'0 0.0
2018-Jun-15 18:30N 40°40' W 074°05'0 0.0
2018-Jun-15 18:00N 40°40' W 074°05'0 0.0
2018-Jun-15 17:30N 40°40' W 074°05'0 0.0
2018-Jun-15 17:00N 40°40' W 074°05'0 0.0
2018-Jun-15 16:30N 40°40' W 074°05'0 0.0
2018-Jun-15 16:00N 40°40' W 074°05'0 0.0
2018-Jun-15 15:30N 40°40' W 074°05'0 0.0
2018-Jun-15 15:00N 40°40' W 074°05'0 0.0
2018-Jun-15 14:30N 40°40' W 074°05'0 0.0
2018-Jun-15 14:00N 40°40' W 074°05'1 2.1
2018-Jun-15 13:31N 40°41' W 074°04'1 2.0
2018-Jun-15 13:00N 40°41' W 074°05'0 0.0
2018-Jun-15 12:30N 40°41' W 074°05'0 0.0
2018-Jun-15 12:00N 40°41' W 074°05'0 0.0
2018-Jun-15 11:30N 40°41' W 074°05'0 0.0
2018-Jun-15 11:00N 40°41' W 074°05'0 0.0
2018-Jun-15 10:30N 40°41' W 074°05'0 0.0
2018-Jun-15 10:00N 40°41' W 074°05'0 0.0
2018-Jun-15 09:30N 40°41' W 074°05'0 0.0
2018-Jun-15 09:00N 40°41' W 074°05'0 0.0
2018-Jun-15 08:30N 40°41' W 074°05'0 0.0
2018-Jun-15 08:00N 40°41' W 074°05'0 0.0
2018-Jun-15 07:30N 40°41' W 074°05'0 0.0
2018-Jun-15 07:00N 40°41' W 074°05'0 0.0
2018-Jun-15 06:30N 40°41' W 074°05'0 0.0
2018-Jun-15 06:00N 40°41' W 074°05'1 1.3
2018-Jun-15 05:30N 40°41' W 074°04'3 6.2
2018-Jun-15 05:00N 40°42' W 074°00'5 1.2
2018-Jun-15 01:12N 40°46' W 073°57'2 8.9
2018-Jun-15 01:00N 40°44' W 073°58'4 7.8
2018-Jun-15 00:31N 40°41' W 074°01'3 6.2
2018-Jun-14 23:59N 40°39' W 074°04'3 5.3
2018-Jun-14 23:26N 40°39' W 074°08'2 3.9
2018-Jun-14 23:00N 40°40' W 074°08'1 1.1
2018-Jun-14 21:49N 40°42' W 074°08'3 8.2
2018-Jun-14 21:28N 40°39' W 074°09'4 8.4
2018-Jun-14 21:00N 40°40' W 074°04'1 1.7
2018-Jun-14 20:28N 40°40' W 074°05'0 0.0
2018-Jun-14 19:55N 40°40' W 074°05'0 0.0
2018-Jun-14 19:28N 40°40' W 074°05'0 0.0
2018-Jun-14 18:58N 40°40' W 074°05'0 0.0
2018-Jun-14 18:17N 40°40' W 074°05'0 0.0
2018-Jun-14 17:59N 40°40' W 074°05'0 0.0
2018-Jun-14 17:29N 40°40' W 074°05'0 0.0
2018-Jun-14 16:59N 40°40' W 074°05'0 0.0
2018-Jun-14 16:29N 40°40' W 074°05'0 0.0
2018-Jun-14 15:59N 40°40' W 074°05'0 0.0
2018-Jun-14 15:29N 40°40' W 074°05'0 0.0
2018-Jun-14 15:00N 40°40' W 074°05'1 1.7
2018-Jun-14 14:30N 40°40' W 074°04'1 1.4
2018-Jun-14 14:00N 40°41' W 074°04'2 4.6
2018-Jun-14 13:30N 40°40' W 074°01'1 1.9
2018-Jun-14 13:00N 40°40' W 073°60'1 2.6
2018-Jun-14 12:30N 40°40' W 074°01'3 5.4
2018-Jun-14 12:00N 40°41' W 074°04'0 0.4
2018-Jun-14 11:29N 40°41' W 074°05'0 0.0
2018-Jun-14 10:59N 40°41' W 074°05'0 0.0
2018-Jun-14 10:29N 40°41' W 074°05'0 0.0
2018-Jun-14 09:50N 40°41' W 074°05'0 0.0
2018-Jun-14 09:29N 40°41' W 074°05'0 0.0
2018-Jun-14 08:59N 40°41' W 074°05'0 0.0
2018-Jun-14 08:29N 40°41' W 074°05'0 0.0
2018-Jun-14 07:59N 40°41' W 074°05'0 0.0
2018-Jun-14 07:29N 40°41' W 074°05'0 0.0
2018-Jun-14 06:59N 40°41' W 074°05'0 0.0
2018-Jun-14 06:29N 40°41' W 074°05'0 0.0
2018-Jun-14 05:47N 40°41' W 074°05'0 0.0
2018-Jun-14 05:23N 40°41' W 074°05'0 0.0
2018-Jun-14 04:59N 40°41' W 074°05'0 0.0
2018-Jun-14 04:26N 40°41' W 074°05'0 0.0
2018-Jun-14 03:59N 40°41' W 074°05'0 0.0
2018-Jun-14 03:27N 40°41' W 074°05'2 4.8
2018-Jun-14 03:00N 40°39' W 074°05'2 4.6
2018-Jun-14 02:29N 40°40' W 074°08'0 0.0
2018-Jun-14 01:53N 40°40' W 074°08'0 0.0
2018-Jun-14 01:29N 40°40' W 074°08'0 0.0
2018-Jun-14 00:59N 40°40' W 074°08'0 0.0
2018-Jun-14 00:29N 40°40' W 074°08'0 0.0
2018-Jun-13 23:56N 40°40' W 074°08'0 0.0
2018-Jun-13 19:05N 40°40' W 074°08'0 0.0
2018-Jun-13 13:07N 40°40' W 074°08'0 3.8
2018-Jun-13 12:59N 40°40' W 074°08'1 0.1
2018-Jun-12 21:47N 40°41' W 074°08'3 8.1
2018-Jun-12 21:26N 40°39' W 074°09'4 8.7
2018-Jun-12 21:01N 40°39' W 074°04'1 1.1
2018-Jun-12 20:30N 40°40' W 074°04'0 0.0
2018-Jun-12 20:00N 40°40' W 074°04'0 0.0
2018-Jun-12 19:30N 40°40' W 074°04'0 0.0
2018-Jun-12 19:00N 40°40' W 074°04'0 0.0
2018-Jun-12 18:27N 40°40' W 074°04'0 0.0
2018-Jun-12 17:59N 40°40' W 074°04'0 0.0
2018-Jun-12 17:30N 40°40' W 074°04'0 0.0
2018-Jun-12 16:56N 40°40' W 074°04'0 0.0
2018-Jun-12 16:29N 40°40' W 074°04'0 0.0
2018-Jun-12 15:59N 40°40' W 074°04'0 0.0
2018-Jun-12 15:30N 40°40' W 074°04'0 0.0
2018-Jun-12 14:59N 40°40' W 074°04'0 0.0
2018-Jun-12 14:29N 40°40' W 074°04'0 0.0
2018-Jun-12 13:59N 40°40' W 074°04'0 0.0
2018-Jun-12 13:29N 40°40' W 074°04'0 0.0
2018-Jun-12 12:59N 40°40' W 074°04'0 0.4
2018-Jun-12 12:30N 40°40' W 074°04'1 1.3
2018-Jun-12 11:47N 40°41' W 074°04'0 0.6
2018-Jun-12 11:30N 40°41' W 074°04'0 0.4
2018-Jun-12 10:57N 40°41' W 074°05'0 0.5
2018-Jun-12 10:30N 40°41' W 074°04'0 0.1
2018-Jun-12 08:12N 40°41' W 074°05'0 0.0
2018-Jun-12 08:00N 40°41' W 074°05'0 0.0
2018-Jun-12 07:30N 40°41' W 074°05'0 0.0
2018-Jun-12 06:48N 40°41' W 074°05'0 0.0
2018-Jun-12 06:30N 40°41' W 074°05'0 0.0
2018-Jun-12 05:54N 40°41' W 074°05'0 0.0
2018-Jun-12 03:33N 40°41' W 074°05'0 1.1
2018-Jun-12 03:28N 40°41' W 074°05'2 4.2
2018-Jun-12 02:58N 40°41' W 074°02'5 1.3
2018-Jun-11 23:13N 40°45' W 073°58'3 7.2
2018-Jun-11 22:52N 40°42' W 073°60'3 8.1
2018-Jun-11 22:30N 40°40' W 074°03'2 2.4
2018-Jun-11 21:51N 40°41' W 074°04'0 0.0
2018-Jun-11 21:23N 40°41' W 074°04'3 0.3
2018-Jun-11 10:58N 40°40' W 074°08'  
Track history (hours):
 
Tides and Currents Weather Stations Pressure Air Temp Water Temp Dewpoint Dewpoint Depression Visibility Wind Speed Wind Dir Waves Ship Positions

Paul Andrew

Owner: Donjon Marine Co., Inc., HILLSIDE, NJ. More information available from US FCC via Universal Licensing System and Coast Guard Vessel Documentation Center.

Last reported at 2018-Jun-20 10:51 UTC. Time now 2018-Jun-20 11:24 UTC.
Position N 40°41' W 074°09'.

Length 20 m; draft 2.5 m.

Type: Tug. MMSI: 366979030.

Date/timePositionNaut miles runAvg speedWind from/ knotsBaromVisibWave heightAir tempDewpointWater temp
2018-Jun-20 10:51N 40°41' W 074°09'1 2.5
2018-Jun-20 10:26N 40°40' W 074°08'1 2.7
2018-Jun-20 10:00N 40°39' W 074°09'2 4.4
2018-Jun-20 09:30N 40°39' W 074°06'2 4.7
2018-Jun-20 09:00N 40°41' W 074°04'1 2.1
2018-Jun-20 08:30N 40°41' W 074°05'0 0.0
2018-Jun-20 08:00N 40°41' W 074°05'0 0.0
2018-Jun-20 07:30N 40°41' W 074°05'0 0.0
2018-Jun-20 07:00N 40°41' W 074°05'0 0.0
2018-Jun-20 06:30N 40°41' W 074°05'0 0.0
2018-Jun-20 06:00N 40°41' W 074°05'0 0.0
2018-Jun-20 05:30N 40°41' W 074°05'0 0.0
2018-Jun-20 05:00N 40°41' W 074°05'0 0.0
2018-Jun-20 04:30N 40°41' W 074°05'0 0.0
2018-Jun-20 04:00N 40°41' W 074°05'0 0.0
2018-Jun-20 03:30N 40°41' W 074°05'0 0.0
2018-Jun-20 02:57N 40°41' W 074°05'0 0.0
2018-Jun-20 02:30N 40°41' W 074°05'0 0.0
2018-Jun-20 01:00N 40°41' W 074°05'0 0.0
2018-Jun-20 00:18N 40°41' W 074°05'0 0.0
2018-Jun-20 00:00N 40°41' W 074°05'0 0.0
2018-Jun-19 21:15N 40°41' W 074°05'0 0.0
2018-Jun-19 21:00N 40°41' W 074°05'0 0.0
2018-Jun-19 20:30N 40°41' W 074°05'0 0.0
2018-Jun-19 20:00N 40°41' W 074°05'0 0.0
2018-Jun-19 19:30N 40°41' W 074°05'0 0.0
2018-Jun-19 19:00N 40°41' W 074°05'0 0.0
2018-Jun-19 18:30N 40°41' W 074°05'0 0.0
2018-Jun-19 18:00N 40°41' W 074°05'0 0.0
2018-Jun-19 17:30N 40°41' W 074°05'0 0.0
2018-Jun-19 17:00N 40°41' W 074°05'0 0.0
2018-Jun-19 16:30N 40°41' W 074°05'0 0.0
2018-Jun-19 16:00N 40°41' W 074°05'0 0.0
2018-Jun-19 15:30N 40°41' W 074°05'0 0.0
2018-Jun-19 15:00N 40°41' W 074°05'0 0.0
2018-Jun-19 14:30N 40°41' W 074°05'0 0.0
2018-Jun-19 13:54N 40°41' W 074°05'0 0.0
2018-Jun-19 13:24N 40°41' W 074°05'0 0.0
2018-Jun-19 13:00N 40°41' W 074°05'0 0.2
2018-Jun-19 12:28N 40°41' W 074°05'0 1.0
2018-Jun-19 12:00N 40°41' W 074°04'2 4.4
2018-Jun-19 11:30N 40°41' W 074°01'4 6.6
2018-Jun-19 10:50N 40°45' W 073°58'1 0.3
2018-Jun-19 06:03N 40°46' W 073°57'0 7.2
2018-Jun-19 06:00N 40°46' W 073°57'2 4.9
2018-Jun-19 05:30N 40°43' W 073°58'3 6.5
2018-Jun-19 05:00N 40°41' W 074°01'2 4.2
2018-Jun-19 04:30N 40°41' W 074°04'0 0.8
2018-Jun-19 03:59N 40°41' W 074°05'0 0.2
2018-Jun-19 03:28N 40°41' W 074°05'0 0.0
2018-Jun-19 02:58N 40°41' W 074°05'0 0.0
2018-Jun-19 02:19N 40°41' W 074°05'0 0.0
2018-Jun-19 01:58N 40°41' W 074°05'0 0.0
2018-Jun-19 01:25N 40°41' W 074°05'0 0.0
2018-Jun-19 00:55N 40°41' W 074°05'0 0.1
2018-Jun-19 00:28N 40°41' W 074°05'0 0.1
2018-Jun-18 23:58N 40°41' W 074°05'0 0.2
2018-Jun-18 23:28N 40°41' W 074°05'3 6.1
2018-Jun-18 22:59N 40°39' W 074°07'2 4.9
2018-Jun-18 22:29N 40°41' W 074°08'1 0.0
2018-Jun-17 10:35N 40°42' W 074°08'1 0.5
2018-Jun-17 09:02N 40°41' W 074°09'0 1.4
2018-Jun-17 08:59N 40°41' W 074°09'0 0.2
2018-Jun-17 08:27N 40°41' W 074°09'2 4.1
2018-Jun-17 07:57N 40°39' W 074°09'2 3.7
2018-Jun-17 07:30N 40°39' W 074°07'2 3.6
2018-Jun-17 07:00N 40°39' W 074°05'3 5.8
2018-Jun-17 06:30N 40°41' W 074°01'4 7.0
2018-Jun-17 06:00N 40°44' W 073°58'2 0.1
2018-Jun-16 11:51N 40°46' W 073°57'2 7.0
2018-Jun-16 11:30N 40°44' W 073°58'3 6.1
2018-Jun-16 11:01N 40°41' W 074°01'2 4.8
2018-Jun-16 10:31N 40°41' W 074°04'1 1.4
2018-Jun-16 10:00N 40°41' W 074°05'0 0.3
2018-Jun-16 09:28N 40°41' W 074°05'0 0.0
2018-Jun-16 08:58N 40°41' W 074°05'0 0.0
2018-Jun-16 08:28N 40°41' W 074°05'0 0.0
2018-Jun-16 07:55N 40°41' W 074°05'0 0.0
2018-Jun-16 07:28N 40°41' W 074°05'0 0.0
2018-Jun-16 06:46N 40°41' W 074°05'0 0.0
2018-Jun-16 06:28N 40°41' W 074°05'0 0.0
2018-Jun-16 05:55N 40°41' W 074°05'0 0.0
2018-Jun-16 05:28N 40°41' W 074°05'0 0.0
2018-Jun-16 04:46N 40°41' W 074°05'0 0.0
2018-Jun-16 04:25N 40°41' W 074°05'0 0.0
2018-Jun-16 03:58N 40°41' W 074°05'0 0.0
2018-Jun-16 03:28N 40°41' W 074°05'0 0.0
2018-Jun-16 03:00N 40°41' W 074°05'2 3.2
2018-Jun-16 02:31N 40°40' W 074°03'2 4.7
2018-Jun-16 01:59N 40°40' W 073°60'0 0.0
2018-Jun-16 01:30N 40°40' W 073°60'2 4.3
2018-Jun-16 01:00N 40°39' W 074°02'3 6.2
2018-Jun-16 00:30N 40°39' W 074°06'2 4.4
2018-Jun-16 00:00N 40°39' W 074°09'2 1.1
2018-Jun-15 22:13N 40°41' W 074°09'0 0.0
2018-Jun-15 21:31N 40°41' W 074°09'0 0.4
2018-Jun-15 21:21N 40°41' W 074°09'2 6.1
2018-Jun-15 20:59N 40°39' W 074°08'3 6.4
2018-Jun-15 20:31N 40°40' W 074°04'1 1.0
2018-Jun-15 20:00N 40°40' W 074°05'0 0.0
2018-Jun-15 19:30N 40°40' W 074°05'0 0.0
2018-Jun-15 19:00N 40°40' W 074°05'0 0.0
2018-Jun-15 18:30N 40°40' W 074°05'0 0.0
2018-Jun-15 18:00N 40°40' W 074°05'0 0.0
2018-Jun-15 17:30N 40°40' W 074°05'0 0.0
2018-Jun-15 17:00N 40°40' W 074°05'0 0.0
2018-Jun-15 16:30N 40°40' W 074°05'0 0.0
2018-Jun-15 16:00N 40°40' W 074°05'0 0.0
2018-Jun-15 15:30N 40°40' W 074°05'0 0.0
2018-Jun-15 15:00N 40°40' W 074°05'0 0.0
2018-Jun-15 14:30N 40°40' W 074°05'0 0.0
2018-Jun-15 14:00N 40°40' W 074°05'1 2.1
2018-Jun-15 13:31N 40°41' W 074°04'1 2.0
2018-Jun-15 13:00N 40°41' W 074°05'0 0.0
2018-Jun-15 12:30N 40°41' W 074°05'0 0.0
2018-Jun-15 12:00N 40°41' W 074°05'0 0.0
2018-Jun-15 11:30N 40°41' W 074°05'0 0.0
2018-Jun-15 11:00N 40°41' W 074°05'0 0.0
2018-Jun-15 10:30N 40°41' W 074°05'0 0.0
2018-Jun-15 10:00N 40°41' W 074°05'0 0.0
2018-Jun-15 09:30N 40°41' W 074°05'0 0.0
2018-Jun-15 09:00N 40°41' W 074°05'0 0.0
2018-Jun-15 08:30N 40°41' W 074°05'0 0.0
2018-Jun-15 08:00N 40°41' W 074°05'0 0.0
2018-Jun-15 07:30N 40°41' W 074°05'0 0.0
2018-Jun-15 07:00N 40°41' W 074°05'0 0.0
2018-Jun-15 06:30N 40°41' W 074°05'0 0.0
2018-Jun-15 06:00N 40°41' W 074°05'1 1.3
2018-Jun-15 05:30N 40°41' W 074°04'3 6.2
2018-Jun-15 05:00N 40°42' W 074°00'5 1.2
2018-Jun-15 01:12N 40°46' W 073°57'2 8.9
2018-Jun-15 01:00N 40°44' W 073°58'4 7.8
2018-Jun-15 00:31N 40°41' W 074°01'3 6.2
2018-Jun-14 23:59N 40°39' W 074°04'3 5.3
2018-Jun-14 23:26N 40°39' W 074°08'2 3.9
2018-Jun-14 23:00N 40°40' W 074°08'1 1.1
2018-Jun-14 21:49N 40°42' W 074°08'3 8.2
2018-Jun-14 21:28N 40°39' W 074°09'4 8.4
2018-Jun-14 21:00N 40°40' W 074°04'1 1.7
2018-Jun-14 20:28N 40°40' W 074°05'0 0.0
2018-Jun-14 19:55N 40°40' W 074°05'0 0.0
2018-Jun-14 19:28N 40°40' W 074°05'0 0.0
2018-Jun-14 18:58N 40°40' W 074°05'0 0.0
2018-Jun-14 18:17N 40°40' W 074°05'0 0.0
2018-Jun-14 17:59N 40°40' W 074°05'0 0.0
2018-Jun-14 17:29N 40°40' W 074°05'0 0.0
2018-Jun-14 16:59N 40°40' W 074°05'0 0.0
2018-Jun-14 16:29N 40°40' W 074°05'0 0.0
2018-Jun-14 15:59N 40°40' W 074°05'0 0.0
2018-Jun-14 15:29N 40°40' W 074°05'0 0.0
2018-Jun-14 15:00N 40°40' W 074°05'1 1.7
2018-Jun-14 14:30N 40°40' W 074°04'1 1.4
2018-Jun-14 14:00N 40°41' W 074°04'2 4.6
2018-Jun-14 13:30N 40°40' W 074°01'1 1.9
2018-Jun-14 13:00N 40°40' W 073°60'1 2.6
2018-Jun-14 12:30N 40°40' W 074°01'3 5.4
2018-Jun-14 12:00N 40°41' W 074°04'0 0.4
2018-Jun-14 11:29N 40°41' W 074°05'0 0.0
2018-Jun-14 10:59N 40°41' W 074°05'0 0.0
2018-Jun-14 10:29N 40°41' W 074°05'0 0.0
2018-Jun-14 09:50N 40°41' W 074°05'0 0.0
2018-Jun-14 09:29N 40°41' W 074°05'0 0.0
2018-Jun-14 08:59N 40°41' W 074°05'0 0.0
2018-Jun-14 08:29N 40°41' W 074°05'0 0.0
2018-Jun-14 07:59N 40°41' W 074°05'0 0.0
2018-Jun-14 07:29N 40°41' W 074°05'0 0.0
2018-Jun-14 06:59N 40°41' W 074°05'0 0.0
2018-Jun-14 06:29N 40°41' W 074°05'0 0.0
2018-Jun-14 05:47N 40°41' W 074°05'0 0.0
2018-Jun-14 05:23N 40°41' W 074°05'0 0.0
2018-Jun-14 04:59N 40°41' W 074°05'0 0.0
2018-Jun-14 04:26N 40°41' W 074°05'0 0.0
2018-Jun-14 03:59N 40°41' W 074°05'0 0.0
2018-Jun-14 03:27N 40°41' W 074°05'2 4.8
2018-Jun-14 03:00N 40°39' W 074°05'2 4.6
2018-Jun-14 02:29N 40°40' W 074°08'0 0.0
2018-Jun-14 01:53N 40°40' W 074°08'0 0.0
2018-Jun-14 01:29N 40°40' W 074°08'0 0.0
2018-Jun-14 00:59N 40°40' W 074°08'0 0.0
2018-Jun-14 00:29N 40°40' W 074°08'0 0.0
2018-Jun-13 23:56N 40°40' W 074°08'0 0.0
2018-Jun-13 19:05N 40°40' W 074°08'0 0.0
2018-Jun-13 13:07N 40°40' W 074°08'0 3.8
2018-Jun-13 12:59N 40°40' W 074°08'1 0.1
2018-Jun-12 21:47N 40°41' W 074°08'3 8.1
2018-Jun-12 21:26N 40°39' W 074°09'4 8.7
2018-Jun-12 21:01N 40°39' W 074°04'1 1.1
2018-Jun-12 20:30N 40°40' W 074°04'0 0.0
2018-Jun-12 20:00N 40°40' W 074°04'0 0.0
2018-Jun-12 19:30N 40°40' W 074°04'0 0.0
2018-Jun-12 19:00N 40°40' W 074°04'0 0.0
2018-Jun-12 18:27N 40°40' W 074°04'0 0.0
2018-Jun-12 17:59N 40°40' W 074°04'0 0.0
2018-Jun-12 17:30N 40°40' W 074°04'0 0.0
2018-Jun-12 16:56N 40°40' W 074°04'0 0.0
2018-Jun-12 16:29N 40°40' W 074°04'0 0.0
2018-Jun-12 15:59N 40°40' W 074°04'0 0.0
2018-Jun-12 15:30N 40°40' W 074°04'0 0.0
2018-Jun-12 14:59N 40°40' W 074°04'0 0.0
2018-Jun-12 14:29N 40°40' W 074°04'0 0.0
2018-Jun-12 13:59N 40°40' W 074°04'0 0.0
2018-Jun-12 13:29N 40°40' W 074°04'0 0.0
2018-Jun-12 12:59N 40°40' W 074°04'0 0.4
2018-Jun-12 12:30N 40°40' W 074°04'1 1.3
2018-Jun-12 11:47N 40°41' W 074°04'0 0.6
2018-Jun-12 11:30N 40°41' W 074°04'0 0.4
2018-Jun-12 10:57N 40°41' W 074°05'0 0.5
2018-Jun-12 10:30N 40°41' W 074°04'0 0.1
2018-Jun-12 08:12N 40°41' W 074°05'0 0.0
2018-Jun-12 08:00N 40°41' W 074°05'0 0.0
2018-Jun-12 07:30N 40°41' W 074°05'0 0.0
2018-Jun-12 06:48N 40°41' W 074°05'0 0.0
2018-Jun-12 06:30N 40°41' W 074°05'0 0.0
2018-Jun-12 05:54N 40°41' W 074°05'0 0.0
2018-Jun-12 03:33N 40°41' W 074°05'0 1.1
2018-Jun-12 03:28N 40°41' W 074°05'2 4.2
2018-Jun-12 02:58N 40°41' W 074°02'5 1.3
2018-Jun-11 23:13N 40°45' W 073°58'3 7.2
2018-Jun-11 22:52N 40°42' W 073°60'3 8.1
2018-Jun-11 22:30N 40°40' W 074°03'2 2.4
2018-Jun-11 21:51N 40°41' W 074°04'0 0.0
2018-Jun-11 21:23N 40°41' W 074°04'3 0.3
2018-Jun-11 10:58N 40°40' W 074°08'  

Dump ship's entire track history